sensor_id;sensor_type;location;lat;lon;timestamp;P1;durP1;ratioP1;P2;durP2;ratioP2
48993;SDS011;34804;49.214;12.276;2023-08-01T00:00:26;8.38;;;4.38;;
48993;SDS011;34804;49.214;12.276;2023-08-01T00:02:53;6.88;;;3.55;;
48993;SDS011;34804;49.214;12.276;2023-08-01T00:05:20;10.57;;;4.30;;
48993;SDS011;34804;49.214;12.276;2023-08-01T00:07:47;8.10;;;3.70;;
48993;SDS011;34804;49.214;12.276;2023-08-01T00:10:14;9.38;;;4.03;;
48993;SDS011;34804;49.214;12.276;2023-08-01T00:12:42;8.70;;;4.35;;
48993;SDS011;34804;49.214;12.276;2023-08-01T00:15:09;8.43;;;3.63;;
48993;SDS011;34804;49.214;12.276;2023-08-01T00:17:36;8.70;;;4.03;;
48993;SDS011;34804;49.214;12.276;2023-08-01T00:20:03;8.30;;;4.05;;
48993;SDS011;34804;49.214;12.276;2023-08-01T00:22:30;7.97;;;4.85;;
48993;SDS011;34804;49.214;12.276;2023-08-01T00:24:57;8.10;;;4.22;;
48993;SDS011;34804;49.214;12.276;2023-08-01T00:27:24;8.07;;;4.10;;
48993;SDS011;34804;49.214;12.276;2023-08-01T00:29:51;9.23;;;3.90;;
48993;SDS011;34804;49.214;12.276;2023-08-01T00:32:18;8.50;;;3.53;;
48993;SDS011;34804;49.214;12.276;2023-08-01T00:34:45;8.48;;;4.47;;
48993;SDS011;34804;49.214;12.276;2023-08-01T00:37:12;6.45;;;3.92;;
48993;SDS011;34804;49.214;12.276;2023-08-01T00:39:39;8.93;;;4.18;;
48993;SDS011;34804;49.214;12.276;2023-08-01T00:42:06;7.57;;;3.88;;
48993;SDS011;34804;49.214;12.276;2023-08-01T00:44:32;6.80;;;3.90;;
48993;SDS011;34804;49.214;12.276;2023-08-01T00:46:59;9.52;;;3.90;;
48993;SDS011;34804;49.214;12.276;2023-08-01T00:49:26;9.15;;;3.88;;
48993;SDS011;34804;49.214;12.276;2023-08-01T00:51:53;7.78;;;3.80;;
48993;SDS011;34804;49.214;12.276;2023-08-01T00:54:20;11.43;;;4.20;;
48993;SDS011;34804;49.214;12.276;2023-08-01T00:56:47;8.40;;;4.10;;
48993;SDS011;34804;49.214;12.276;2023-08-01T00:59:15;8.02;;;4.15;;
48993;SDS011;34804;49.214;12.276;2023-08-01T01:01:42;9.65;;;4.07;;
48993;SDS011;34804;49.214;12.276;2023-08-01T01:04:09;9.02;;;3.85;;
48993;SDS011;34804;49.214;12.276;2023-08-01T01:06:41;9.25;;;4.00;;
48993;SDS011;34804;49.214;12.276;2023-08-01T01:09:15;7.90;;;4.22;;
48993;SDS011;34804;49.214;12.276;2023-08-01T01:11:45;11.77;;;5.03;;
48993;SDS011;34804;49.214;12.276;2023-08-01T01:14:12;7.97;;;3.83;;
48993;SDS011;34804;49.214;12.276;2023-08-01T01:16:39;9.75;;;4.28;;
48993;SDS011;34804;49.214;12.276;2023-08-01T01:19:07;10.80;;;4.82;;
48993;SDS011;34804;49.214;12.276;2023-08-01T01:21:35;9.23;;;4.10;;
48993;SDS011;34804;49.214;12.276;2023-08-01T01:24:07;9.43;;;3.92;;
48993;SDS011;34804;49.214;12.276;2023-08-01T01:26:36;9.25;;;4.43;;
48993;SDS011;34804;49.214;12.276;2023-08-01T01:29:05;8.27;;;4.25;;
48993;SDS011;34804;49.214;12.276;2023-08-01T01:31:35;10.00;;;4.43;;
48993;SDS011;34804;49.214;12.276;2023-08-01T01:34:03;12.80;;;4.80;;
48993;SDS011;34804;49.214;12.276;2023-08-01T01:36:30;7.45;;;4.00;;
48993;SDS011;34804;49.214;12.276;2023-08-01T01:38:57;8.30;;;3.80;;
48993;SDS011;34804;49.214;12.276;2023-08-01T01:41:24;9.90;;;4.13;;
48993;SDS011;34804;49.214;12.276;2023-08-01T01:43:51;6.57;;;3.83;;
48993;SDS011;34804;49.214;12.276;2023-08-01T01:46:18;8.50;;;4.05;;
48993;SDS011;34804;49.214;12.276;2023-08-01T01:48:45;8.07;;;4.28;;
48993;SDS011;34804;49.214;12.276;2023-08-01T01:51:13;7.45;;;4.07;;
48993;SDS011;34804;49.214;12.276;2023-08-01T01:53:41;9.95;;;4.68;;
48993;SDS011;34804;49.214;12.276;2023-08-01T01:56:08;13.60;;;5.03;;
48993;SDS011;34804;49.214;12.276;2023-08-01T01:58:35;9.95;;;3.97;;
48993;SDS011;34804;49.214;12.276;2023-08-01T02:01:02;11.40;;;4.72;;
48993;SDS011;34804;49.214;12.276;2023-08-01T02:03:29;9.38;;;4.30;;
48993;SDS011;34804;49.214;12.276;2023-08-01T02:05:56;9.55;;;4.28;;
48993;SDS011;34804;49.214;12.276;2023-08-01T02:08:22;9.82;;;4.43;;
48993;SDS011;34804;49.214;12.276;2023-08-01T02:10:49;8.75;;;4.40;;
48993;SDS011;34804;49.214;12.276;2023-08-01T02:13:17;9.57;;;4.45;;
48993;SDS011;34804;49.214;12.276;2023-08-01T02:15:45;9.32;;;4.40;;
48993;SDS011;34804;49.214;12.276;2023-08-01T02:18:12;10.15;;;4.30;;
48993;SDS011;34804;49.214;12.276;2023-08-01T02:20:39;8.23;;;4.65;;
48993;SDS011;34804;49.214;12.276;2023-08-01T02:23:05;10.10;;;4.63;;
48993;SDS011;34804;49.214;12.276;2023-08-01T02:25:32;9.02;;;4.50;;
48993;SDS011;34804;49.214;12.276;2023-08-01T02:28:05;9.63;;;4.37;;
48993;SDS011;34804;49.214;12.276;2023-08-01T02:30:36;10.73;;;4.70;;
48993;SDS011;34804;49.214;12.276;2023-08-01T02:33:02;9.15;;;4.75;;
48993;SDS011;34804;49.214;12.276;2023-08-01T02:35:30;12.00;;;4.97;;
48993;SDS011;34804;49.214;12.276;2023-08-01T02:37:57;10.57;;;4.95;;
48993;SDS011;34804;49.214;12.276;2023-08-01T02:40:24;9.52;;;4.68;;
48993;SDS011;34804;49.214;12.276;2023-08-01T02:42:52;10.43;;;5.15;;
48993;SDS011;34804;49.214;12.276;2023-08-01T02:45:19;9.73;;;5.05;;
48993;SDS011;34804;49.214;12.276;2023-08-01T02:47:45;8.90;;;4.88;;
48993;SDS011;34804;49.214;12.276;2023-08-01T02:50:12;10.63;;;5.20;;
48993;SDS011;34804;49.214;12.276;2023-08-01T02:52:39;13.00;;;5.43;;
48993;SDS011;34804;49.214;12.276;2023-08-01T02:55:06;7.75;;;4.78;;
48993;SDS011;34804;49.214;12.276;2023-08-01T02:57:33;9.38;;;4.93;;
48993;SDS011;34804;49.214;12.276;2023-08-01T03:00:00;8.10;;;4.57;;
48993;SDS011;34804;49.214;12.276;2023-08-01T03:02:31;10.75;;;5.20;;
48993;SDS011;34804;49.214;12.276;2023-08-01T03:04:58;9.77;;;5.03;;
48993;SDS011;34804;49.214;12.276;2023-08-01T03:07:25;11.60;;;5.53;;
48993;SDS011;34804;49.214;12.276;2023-08-01T03:09:52;9.02;;;5.32;;
48993;SDS011;34804;49.214;12.276;2023-08-01T03:12:18;14.20;;;5.13;;
48993;SDS011;34804;49.214;12.276;2023-08-01T03:14:45;9.30;;;5.20;;
48993;SDS011;34804;49.214;12.276;2023-08-01T03:17:14;10.85;;;5.15;;
48993;SDS011;34804;49.214;12.276;2023-08-01T03:19:40;8.70;;;4.95;;
48993;SDS011;34804;49.214;12.276;2023-08-01T03:22:08;10.85;;;5.63;;
48993;SDS011;34804;49.214;12.276;2023-08-01T03:24:36;8.88;;;4.85;;
48993;SDS011;34804;49.214;12.276;2023-08-01T03:27:03;13.30;;;5.00;;
48993;SDS011;34804;49.214;12.276;2023-08-01T03:29:30;9.82;;;4.82;;
48993;SDS011;34804;49.214;12.276;2023-08-01T03:31:57;8.77;;;5.38;;
48993;SDS011;34804;49.214;12.276;2023-08-01T03:34:24;10.55;;;4.82;;
48993;SDS011;34804;49.214;12.276;2023-08-01T03:36:53;8.70;;;5.03;;
48993;SDS011;34804;49.214;12.276;2023-08-01T03:39:20;8.45;;;4.53;;
48993;SDS011;34804;49.214;12.276;2023-08-01T03:41:47;11.35;;;5.25;;
48993;SDS011;34804;49.214;12.276;2023-08-01T03:44:13;12.05;;;4.93;;
48993;SDS011;34804;49.214;12.276;2023-08-01T03:46:42;9.00;;;5.10;;
48993;SDS011;34804;49.214;12.276;2023-08-01T03:49:09;11.80;;;5.05;;
48993;SDS011;34804;49.214;12.276;2023-08-01T03:51:36;12.38;;;5.13;;
48993;SDS011;34804;49.214;12.276;2023-08-01T03:54:03;11.93;;;5.20;;
48993;SDS011;34804;49.214;12.276;2023-08-01T03:56:39;10.20;;;4.97;;
48993;SDS011;34804;49.214;12.276;2023-08-01T03:59:11;8.85;;;4.80;;
48993;SDS011;34804;49.214;12.276;2023-08-01T04:01:39;7.95;;;4.63;;
48993;SDS011;34804;49.214;12.276;2023-08-01T04:04:07;7.95;;;4.30;;
48993;SDS011;34804;49.214;12.276;2023-08-01T04:06:35;11.90;;;5.13;;
48993;SDS011;34804;49.214;12.276;2023-08-01T04:09:02;10.68;;;5.20;;
48993;SDS011;34804;49.214;12.276;2023-08-01T04:11:29;12.07;;;4.85;;
48993;SDS011;34804;49.214;12.276;2023-08-01T04:13:56;10.20;;;5.00;;
48993;SDS011;34804;49.214;12.276;2023-08-01T04:16:23;7.38;;;4.43;;
48993;SDS011;34804;49.214;12.276;2023-08-01T04:18:50;7.55;;;4.40;;
48993;SDS011;34804;49.214;12.276;2023-08-01T04:21:17;9.65;;;4.13;;
48993;SDS011;34804;49.214;12.276;2023-08-01T04:23:44;8.50;;;4.20;;
48993;SDS011;34804;49.214;12.276;2023-08-01T04:26:12;8.57;;;4.55;;
48993;SDS011;34804;49.214;12.276;2023-08-01T04:28:39;8.77;;;4.50;;
48993;SDS011;34804;49.214;12.276;2023-08-01T04:31:06;9.93;;;4.70;;
48993;SDS011;34804;49.214;12.276;2023-08-01T04:33:33;9.73;;;4.93;;
48993;SDS011;34804;49.214;12.276;2023-08-01T04:36:00;8.77;;;4.30;;
48993;SDS011;34804;49.214;12.276;2023-08-01T04:38:28;10.07;;;4.70;;
48993;SDS011;34804;49.214;12.276;2023-08-01T04:40:55;8.13;;;4.80;;
48993;SDS011;34804;49.214;12.276;2023-08-01T04:43:21;10.40;;;4.88;;
48993;SDS011;34804;49.214;12.276;2023-08-01T04:45:48;10.63;;;4.93;;
48993;SDS011;34804;49.214;12.276;2023-08-01T04:48:15;10.57;;;4.80;;
48993;SDS011;34804;49.214;12.276;2023-08-01T04:50:42;7.88;;;4.80;;
48993;SDS011;34804;49.214;12.276;2023-08-01T04:53:08;12.55;;;5.07;;
48993;SDS011;34804;49.214;12.276;2023-08-01T04:55:35;11.55;;;5.28;;
48993;SDS011;34804;49.214;12.276;2023-08-01T04:58:02;10.82;;;5.25;;
48993;SDS011;34804;49.214;12.276;2023-08-01T05:00:29;9.57;;;5.35;;
48993;SDS011;34804;49.214;12.276;2023-08-01T05:02:56;9.80;;;5.28;;
48993;SDS011;34804;49.214;12.276;2023-08-01T05:05:23;13.50;;;5.47;;
48993;SDS011;34804;49.214;12.276;2023-08-01T05:07:49;9.88;;;4.70;;
48993;SDS011;34804;49.214;12.276;2023-08-01T05:10:16;8.80;;;5.10;;
48993;SDS011;34804;49.214;12.276;2023-08-01T05:12:43;16.75;;;5.20;;
48993;SDS011;34804;49.214;12.276;2023-08-01T05:15:10;13.73;;;5.25;;
48993;SDS011;34804;49.214;12.276;2023-08-01T05:17:37;8.00;;;4.57;;
48993;SDS011;34804;49.214;12.276;2023-08-01T05:20:04;8.70;;;4.93;;
48993;SDS011;34804;49.214;12.276;2023-08-01T05:22:31;9.20;;;4.90;;
48993;SDS011;34804;49.214;12.276;2023-08-01T05:24:58;10.43;;;4.65;;
48993;SDS011;34804;49.214;12.276;2023-08-01T05:27:25;7.95;;;4.18;;
48993;SDS011;34804;49.214;12.276;2023-08-01T05:29:52;7.22;;;4.53;;
48993;SDS011;34804;49.214;12.276;2023-08-01T05:32:18;11.30;;;5.28;;
48993;SDS011;34804;49.214;12.276;2023-08-01T05:34:45;9.52;;;4.90;;
48993;SDS011;34804;49.214;12.276;2023-08-01T05:37:12;9.93;;;5.00;;
48993;SDS011;34804;49.214;12.276;2023-08-01T05:39:39;8.50;;;4.70;;
48993;SDS011;34804;49.214;12.276;2023-08-01T05:42:06;8.52;;;4.80;;
48993;SDS011;34804;49.214;12.276;2023-08-01T05:44:35;9.90;;;5.05;;
48993;SDS011;34804;49.214;12.276;2023-08-01T05:47:01;8.52;;;4.93;;
48993;SDS011;34804;49.214;12.276;2023-08-01T05:49:28;10.63;;;4.57;;
48993;SDS011;34804;49.214;12.276;2023-08-01T05:51:56;8.07;;;5.07;;
48993;SDS011;34804;49.214;12.276;2023-08-01T05:54:23;9.55;;;5.07;;
48993;SDS011;34804;49.214;12.276;2023-08-01T05:56:50;10.10;;;5.05;;
48993;SDS011;34804;49.214;12.276;2023-08-01T05:59:16;7.93;;;4.47;;
48993;SDS011;34804;49.214;12.276;2023-08-01T06:01:44;9.52;;;4.93;;
48993;SDS011;34804;49.214;12.276;2023-08-01T06:04:10;8.77;;;5.07;;
48993;SDS011;34804;49.214;12.276;2023-08-01T06:06:37;11.30;;;5.10;;
48993;SDS011;34804;49.214;12.276;2023-08-01T06:09:05;8.65;;;4.93;;
48993;SDS011;34804;49.214;12.276;2023-08-01T06:11:32;10.18;;;5.53;;
48993;SDS011;34804;49.214;12.276;2023-08-01T06:14:00;9.77;;;5.30;;
48993;SDS011;34804;49.214;12.276;2023-08-01T06:16:27;9.20;;;4.70;;
48993;SDS011;34804;49.214;12.276;2023-08-01T06:18:54;8.85;;;4.80;;
48993;SDS011;34804;49.214;12.276;2023-08-01T06:21:20;9.57;;;4.93;;
48993;SDS011;34804;49.214;12.276;2023-08-01T06:23:47;9.70;;;5.03;;
48993;SDS011;34804;49.214;12.276;2023-08-01T06:26:14;8.75;;;4.85;;
48993;SDS011;34804;49.214;12.276;2023-08-01T06:28:44;9.68;;;6.03;;
48993;SDS011;34804;49.214;12.276;2023-08-01T06:31:11;8.60;;;4.70;;
48993;SDS011;34804;49.214;12.276;2023-08-01T06:33:38;8.18;;;5.00;;
48993;SDS011;34804;49.214;12.276;2023-08-01T06:36:05;11.82;;;5.22;;
48993;SDS011;34804;49.214;12.276;2023-08-01T06:38:32;11.07;;;5.15;;
48993;SDS011;34804;49.214;12.276;2023-08-01T06:40:59;10.18;;;5.47;;
48993;SDS011;34804;49.214;12.276;2023-08-01T06:43:26;10.02;;;5.53;;
48993;SDS011;34804;49.214;12.276;2023-08-01T06:45:52;8.65;;;4.93;;
48993;SDS011;34804;49.214;12.276;2023-08-01T06:48:19;7.82;;;4.30;;
48993;SDS011;34804;49.214;12.276;2023-08-01T06:50:46;10.02;;;5.25;;
48993;SDS011;34804;49.214;12.276;2023-08-01T06:53:13;9.13;;;5.65;;
48993;SDS011;34804;49.214;12.276;2023-08-01T06:55:40;9.20;;;4.85;;
48993;SDS011;34804;49.214;12.276;2023-08-01T06:58:06;8.57;;;4.57;;
48993;SDS011;34804;49.214;12.276;2023-08-01T07:00:33;8.55;;;4.88;;
48993;SDS011;34804;49.214;12.276;2023-08-01T07:03:00;11.32;;;4.97;;
48993;SDS011;34804;49.214;12.276;2023-08-01T07:05:27;11.10;;;5.43;;
48993;SDS011;34804;49.214;12.276;2023-08-01T07:07:54;11.07;;;5.45;;
48993;SDS011;34804;49.214;12.276;2023-08-01T07:10:21;8.52;;;4.70;;
48993;SDS011;34804;49.214;12.276;2023-08-01T07:12:48;8.38;;;4.93;;
48993;SDS011;34804;49.214;12.276;2023-08-01T07:15:14;8.32;;;4.95;;
48993;SDS011;34804;49.214;12.276;2023-08-01T07:17:41;9.77;;;5.28;;
48993;SDS011;34804;49.214;12.276;2023-08-01T07:20:08;9.27;;;4.90;;
48993;SDS011;34804;49.214;12.276;2023-08-01T07:22:35;10.82;;;5.07;;
48993;SDS011;34804;49.214;12.276;2023-08-01T07:25:02;9.85;;;5.30;;
48993;SDS011;34804;49.214;12.276;2023-08-01T07:27:30;10.15;;;4.70;;
48993;SDS011;34804;49.214;12.276;2023-08-01T07:29:56;10.02;;;5.10;;
48993;SDS011;34804;49.214;12.276;2023-08-01T07:32:23;7.65;;;4.88;;
48993;SDS011;34804;49.214;12.276;2023-08-01T07:34:50;9.77;;;5.13;;
48993;SDS011;34804;49.214;12.276;2023-08-01T07:37:17;10.98;;;5.05;;
48993;SDS011;34804;49.214;12.276;2023-08-01T07:39:44;9.48;;;5.50;;
48993;SDS011;34804;49.214;12.276;2023-08-01T07:42:10;9.52;;;5.18;;
48993;SDS011;34804;49.214;12.276;2023-08-01T07:44:37;8.63;;;4.60;;
48993;SDS011;34804;49.214;12.276;2023-08-01T07:47:04;10.35;;;4.65;;
48993;SDS011;34804;49.214;12.276;2023-08-01T07:49:31;9.50;;;4.90;;
48993;SDS011;34804;49.214;12.276;2023-08-01T07:51:58;8.48;;;5.38;;
48993;SDS011;34804;49.214;12.276;2023-08-01T07:54:25;9.20;;;5.43;;
48993;SDS011;34804;49.214;12.276;2023-08-01T07:56:51;11.43;;;5.30;;
48993;SDS011;34804;49.214;12.276;2023-08-01T07:59:18;8.60;;;5.00;;
48993;SDS011;34804;49.214;12.276;2023-08-01T08:01:45;9.40;;;5.15;;
48993;SDS011;34804;49.214;12.276;2023-08-01T08:04:12;12.52;;;5.47;;
48993;SDS011;34804;49.214;12.276;2023-08-01T08:06:40;14.13;;;5.90;;
48993;SDS011;34804;49.214;12.276;2023-08-01T08:09:08;13.00;;;6.07;;
48993;SDS011;34804;49.214;12.276;2023-08-01T08:11:35;10.90;;;6.05;;
48993;SDS011;34804;49.214;12.276;2023-08-01T08:14:01;9.60;;;5.47;;
48993;SDS011;34804;49.214;12.276;2023-08-01T08:16:29;10.27;;;5.18;;
48993;SDS011;34804;49.214;12.276;2023-08-01T08:18:56;9.50;;;4.85;;
48993;SDS011;34804;49.214;12.276;2023-08-01T08:21:23;10.57;;;5.53;;
48993;SDS011;34804;49.214;12.276;2023-08-01T08:23:49;9.73;;;5.05;;
48993;SDS011;34804;49.214;12.276;2023-08-01T08:26:16;9.35;;;5.15;;
48993;SDS011;34804;49.214;12.276;2023-08-01T08:28:43;9.18;;;4.93;;
48993;SDS011;34804;49.214;12.276;2023-08-01T08:31:10;9.98;;;5.45;;
48993;SDS011;34804;49.214;12.276;2023-08-01T08:33:37;10.27;;;6.05;;
48993;SDS011;34804;49.214;12.276;2023-08-01T08:36:04;11.10;;;6.07;;
48993;SDS011;34804;49.214;12.276;2023-08-01T08:38:31;10.82;;;6.25;;
48993;SDS011;34804;49.214;12.276;2023-08-01T08:41:10;13.82;;;6.05;;
48993;SDS011;34804;49.214;12.276;2023-08-01T08:43:40;11.77;;;6.78;;
48993;SDS011;34804;49.214;12.276;2023-08-01T08:46:08;11.73;;;6.35;;
48993;SDS011;34804;49.214;12.276;2023-08-01T08:48:35;12.45;;;6.10;;
48993;SDS011;34804;49.214;12.276;2023-08-01T08:51:05;10.95;;;6.00;;
48993;SDS011;34804;49.214;12.276;2023-08-01T08:53:34;11.35;;;6.30;;
48993;SDS011;34804;49.214;12.276;2023-08-01T08:56:02;11.48;;;5.75;;
48993;SDS011;34804;49.214;12.276;2023-08-01T08:58:29;10.90;;;6.22;;
48993;SDS011;34804;49.214;12.276;2023-08-01T09:01:02;11.00;;;6.40;;
48993;SDS011;34804;49.214;12.276;2023-08-01T09:03:31;10.57;;;5.63;;
48993;SDS011;34804;49.214;12.276;2023-08-01T09:06:09;10.25;;;5.90;;
48993;SDS011;34804;49.214;12.276;2023-08-01T09:08:50;10.60;;;5.22;;
48993;SDS011;34804;49.214;12.276;2023-08-01T09:11:20;9.48;;;5.22;;
48993;SDS011;34804;49.214;12.276;2023-08-01T09:13:47;10.52;;;5.28;;
48993;SDS011;34804;49.214;12.276;2023-08-01T09:16:14;10.43;;;5.72;;
48993;SDS011;34804;49.214;12.276;2023-08-01T09:18:48;9.43;;;5.78;;
48993;SDS011;34804;49.214;12.276;2023-08-01T09:21:19;9.90;;;5.80;;
48993;SDS011;34804;49.214;12.276;2023-08-01T09:23:47;9.98;;;5.25;;
48993;SDS011;34804;49.214;12.276;2023-08-01T09:26:18;9.90;;;5.88;;
48993;SDS011;34804;49.214;12.276;2023-08-01T09:28:56;13.45;;;5.65;;
48993;SDS011;34804;49.214;12.276;2023-08-01T09:31:30;9.85;;;5.57;;
48993;SDS011;34804;49.214;12.276;2023-08-01T09:34:21;10.32;;;5.90;;
48993;SDS011;34804;49.214;12.276;2023-08-01T09:36:58;12.40;;;5.60;;
48993;SDS011;34804;49.214;12.276;2023-08-01T09:39:26;10.88;;;5.97;;
48993;SDS011;34804;49.214;12.276;2023-08-01T09:42:00;13.70;;;5.55;;
48993;SDS011;34804;49.214;12.276;2023-08-01T09:44:30;10.90;;;5.95;;
48993;SDS011;34804;49.214;12.276;2023-08-01T09:46:58;9.55;;;5.47;;
48993;SDS011;34804;49.214;12.276;2023-08-01T09:49:33;10.40;;;5.55;;
48993;SDS011;34804;49.214;12.276;2023-08-01T09:52:05;10.65;;;5.53;;
48993;SDS011;34804;49.214;12.276;2023-08-01T09:54:35;8.43;;;4.95;;
48993;SDS011;34804;49.214;12.276;2023-08-01T09:57:04;10.00;;;4.80;;
48993;SDS011;34804;49.214;12.276;2023-08-01T09:59:33;9.25;;;5.13;;
48993;SDS011;34804;49.214;12.276;2023-08-01T10:02:02;9.18;;;4.38;;
48993;SDS011;34804;49.214;12.276;2023-08-01T10:04:43;9.23;;;4.07;;
48993;SDS011;34804;49.214;12.276;2023-08-01T10:07:15;8.80;;;4.65;;
48993;SDS011;34804;49.214;12.276;2023-08-01T10:09:53;8.20;;;4.00;;
48993;SDS011;34804;49.214;12.276;2023-08-01T10:12:25;9.65;;;5.00;;
48993;SDS011;34804;49.214;12.276;2023-08-01T10:14:53;9.77;;;4.55;;
48993;SDS011;34804;49.214;12.276;2023-08-01T10:17:21;7.63;;;4.85;;
48993;SDS011;34804;49.214;12.276;2023-08-01T10:19:53;9.98;;;6.32;;
48993;SDS011;34804;49.214;12.276;2023-08-01T10:22:22;10.55;;;6.22;;
48993;SDS011;34804;49.214;12.276;2023-08-01T10:24:51;11.32;;;5.78;;
48993;SDS011;34804;49.214;12.276;2023-08-01T10:27:19;11.55;;;6.20;;
48993;SDS011;34804;49.214;12.276;2023-08-01T10:30:00;10.60;;;5.63;;
48993;SDS011;34804;49.214;12.276;2023-08-01T10:32:37;8.35;;;4.95;;
48993;SDS011;34804;49.214;12.276;2023-08-01T10:35:05;8.55;;;4.78;;
48993;SDS011;34804;49.214;12.276;2023-08-01T10:37:42;8.98;;;4.50;;
48993;SDS011;34804;49.214;12.276;2023-08-01T10:40:16;9.77;;;4.63;;
48993;SDS011;34804;49.214;12.276;2023-08-01T10:42:44;7.13;;;4.10;;
48993;SDS011;34804;49.214;12.276;2023-08-01T10:45:21;10.48;;;4.72;;
48993;SDS011;34804;49.214;12.276;2023-08-01T10:47:51;8.57;;;4.50;;
48993;SDS011;34804;49.214;12.276;2023-08-01T10:50:18;10.02;;;5.43;;
48993;SDS011;34804;49.214;12.276;2023-08-01T10:52:45;9.65;;;5.20;;
48993;SDS011;34804;49.214;12.276;2023-08-01T10:55:13;10.55;;;5.25;;
48993;SDS011;34804;49.214;12.276;2023-08-01T10:57:49;10.00;;;5.38;;
48993;SDS011;34804;49.214;12.276;2023-08-01T11:00:23;8.90;;;5.57;;
48993;SDS011;34804;49.214;12.276;2023-08-01T11:02:50;9.68;;;5.15;;
48993;SDS011;34804;49.214;12.276;2023-08-01T11:05:20;8.45;;;5.10;;
48993;SDS011;34804;49.214;12.276;2023-08-01T11:07:53;9.38;;;5.63;;
48993;SDS011;34804;49.214;12.276;2023-08-01T11:10:23;9.75;;;5.07;;
48993;SDS011;34804;49.214;12.276;2023-08-01T11:12:51;12.85;;;5.28;;
48993;SDS011;34804;49.214;12.276;2023-08-01T11:15:19;7.80;;;4.40;;
48993;SDS011;34804;49.214;12.276;2023-08-01T11:17:47;8.65;;;5.63;;
48993;SDS011;34804;49.214;12.276;2023-08-01T11:20:19;11.82;;;5.78;;
48993;SDS011;34804;49.214;12.276;2023-08-01T11:22:49;10.57;;;5.30;;
48993;SDS011;34804;49.214;12.276;2023-08-01T11:25:35;8.20;;;4.95;;
48993;SDS011;34804;49.214;12.276;2023-08-01T11:28:07;9.48;;;5.05;;
48993;SDS011;34804;49.214;12.276;2023-08-01T11:30:38;12.18;;;5.35;;
48993;SDS011;34804;49.214;12.276;2023-08-01T11:33:21;9.23;;;5.32;;
48993;SDS011;34804;49.214;12.276;2023-08-01T11:38:22;8.98;;;5.32;;
48993;SDS011;34804;49.214;12.276;2023-08-01T11:40:51;9.57;;;5.85;;
48993;SDS011;34804;49.214;12.276;2023-08-01T11:43:19;8.25;;;4.88;;
48993;SDS011;34804;49.214;12.276;2023-08-01T11:45:55;9.25;;;4.78;;
48993;SDS011;34804;49.214;12.276;2023-08-01T11:48:25;8.38;;;5.07;;
48993;SDS011;34804;49.214;12.276;2023-08-01T11:50:58;8.85;;;5.70;;
48993;SDS011;34804;49.214;12.276;2023-08-01T11:53:25;8.90;;;5.50;;
48993;SDS011;34804;49.214;12.276;2023-08-01T11:55:52;9.20;;;5.30;;
48993;SDS011;34804;49.214;12.276;2023-08-01T11:58:29;9.02;;;5.57;;
48993;SDS011;34804;49.214;12.276;2023-08-01T12:01:04;10.57;;;5.22;;
48993;SDS011;34804;49.214;12.276;2023-08-01T12:03:32;9.82;;;5.57;;
48993;SDS011;34804;49.214;12.276;2023-08-01T12:06:08;7.97;;;4.60;;
48993;SDS011;34804;49.214;12.276;2023-08-01T12:08:34;8.88;;;4.57;;
48993;SDS011;34804;49.214;12.276;2023-08-01T12:11:01;8.73;;;4.78;;
48993;SDS011;34804;49.214;12.276;2023-08-01T12:13:31;9.63;;;5.15;;
48993;SDS011;34804;49.214;12.276;2023-08-01T12:15:58;9.55;;;4.50;;
48993;SDS011;34804;49.214;12.276;2023-08-01T12:18:28;6.68;;;3.95;;
48993;SDS011;34804;49.214;12.276;2023-08-01T12:21:26;7.03;;;3.70;;
48993;SDS011;34804;49.214;12.276;2023-08-01T12:23:54;7.25;;;3.40;;
48993;SDS011;34804;49.214;12.276;2023-08-01T12:26:24;8.35;;;3.30;;
48993;SDS011;34804;49.214;12.276;2023-08-01T12:28:51;8.68;;;3.38;;
48993;SDS011;34804;49.214;12.276;2023-08-01T12:31:18;6.75;;;3.40;;
48993;SDS011;34804;49.214;12.276;2023-08-01T12:33:47;6.72;;;3.60;;
48993;SDS011;34804;49.214;12.276;2023-08-01T12:36:15;7.88;;;3.15;;
48993;SDS011;34804;49.214;12.276;2023-08-01T12:38:42;8.52;;;3.90;;
48993;SDS011;34804;49.214;12.276;2023-08-01T12:41:09;7.47;;;3.40;;
48993;SDS011;34804;49.214;12.276;2023-08-01T12:43:38;6.95;;;3.60;;
48993;SDS011;34804;49.214;12.276;2023-08-01T12:46:08;6.47;;;3.33;;
48993;SDS011;34804;49.214;12.276;2023-08-01T12:48:34;7.57;;;3.53;;
48993;SDS011;34804;49.214;12.276;2023-08-01T12:51:02;8.20;;;2.95;;
48993;SDS011;34804;49.214;12.276;2023-08-01T12:53:29;7.85;;;3.80;;
48993;SDS011;34804;49.214;12.276;2023-08-01T12:55:59;6.13;;;2.95;;
48993;SDS011;34804;49.214;12.276;2023-08-01T12:58:26;7.00;;;3.60;;
48993;SDS011;34804;49.214;12.276;2023-08-01T13:00:53;7.18;;;3.33;;
48993;SDS011;34804;49.214;12.276;2023-08-01T13:03:21;8.52;;;3.70;;
48993;SDS011;34804;49.214;12.276;2023-08-01T13:05:48;6.25;;;2.92;;
48993;SDS011;34804;49.214;12.276;2023-08-01T13:08:15;5.70;;;2.70;;
48993;SDS011;34804;49.214;12.276;2023-08-01T13:10:42;5.82;;;3.10;;
48993;SDS011;34804;49.214;12.276;2023-08-01T13:13:12;7.57;;;2.92;;
48993;SDS011;34804;49.214;12.276;2023-08-01T13:15:39;7.63;;;2.80;;
48993;SDS011;34804;49.214;12.276;2023-08-01T13:18:06;8.20;;;2.60;;
48993;SDS011;34804;49.214;12.276;2023-08-01T13:20:32;6.32;;;2.90;;
48993;SDS011;34804;49.214;12.276;2023-08-01T13:23:02;6.30;;;2.92;;
48993;SDS011;34804;49.214;12.276;2023-08-01T13:25:29;7.82;;;3.22;;
48993;SDS011;34804;49.214;12.276;2023-08-01T13:27:56;6.57;;;2.50;;
48993;SDS011;34804;49.214;12.276;2023-08-01T13:30:23;5.03;;;2.45;;
48993;SDS011;34804;49.214;12.276;2023-08-01T13:32:50;4.63;;;2.40;;
48993;SDS011;34804;49.214;12.276;2023-08-01T13:35:17;4.25;;;2.10;;
48993;SDS011;34804;49.214;12.276;2023-08-01T13:37:43;5.13;;;2.30;;
48993;SDS011;34804;49.214;12.276;2023-08-01T13:40:10;6.15;;;2.55;;
48993;SDS011;34804;49.214;12.276;2023-08-01T13:42:40;5.00;;;1.98;;
48993;SDS011;34804;49.214;12.276;2023-08-01T13:45:07;4.22;;;2.00;;
48993;SDS011;34804;49.214;12.276;2023-08-01T13:47:34;4.35;;;1.65;;
48993;SDS011;34804;49.214;12.276;2023-08-01T13:50:01;6.05;;;1.80;;
48993;SDS011;34804;49.214;12.276;2023-08-01T13:52:28;6.18;;;2.00;;
48993;SDS011;34804;49.214;12.276;2023-08-01T13:54:55;4.47;;;2.20;;
48993;SDS011;34804;49.214;12.276;2023-08-01T13:57:22;3.83;;;1.40;;
48993;SDS011;34804;49.214;12.276;2023-08-01T13:59:50;4.55;;;2.00;;
48993;SDS011;34804;49.214;12.276;2023-08-01T14:02:35;4.38;;;1.88;;
48993;SDS011;34804;49.214;12.276;2023-08-01T14:05:02;5.13;;;1.60;;
48993;SDS011;34804;49.214;12.276;2023-08-01T14:07:30;3.08;;;1.33;;
48993;SDS011;34804;49.214;12.276;2023-08-01T14:09:56;3.20;;;1.35;;
48993;SDS011;34804;49.214;12.276;2023-08-01T14:12:23;4.25;;;1.58;;
48993;SDS011;34804;49.214;12.276;2023-08-01T14:14:50;4.03;;;1.50;;
48993;SDS011;34804;49.214;12.276;2023-08-01T14:17:17;4.47;;;1.80;;
48993;SDS011;34804;49.214;12.276;2023-08-01T14:19:44;4.47;;;1.70;;
48993;SDS011;34804;49.214;12.276;2023-08-01T14:22:11;4.38;;;1.73;;
48993;SDS011;34804;49.214;12.276;2023-08-01T14:24:38;3.60;;;1.60;;
48993;SDS011;34804;49.214;12.276;2023-08-01T14:27:04;4.35;;;1.60;;
48993;SDS011;34804;49.214;12.276;2023-08-01T14:29:31;4.78;;;1.70;;
48993;SDS011;34804;49.214;12.276;2023-08-01T14:32:00;3.90;;;1.60;;
48993;SDS011;34804;49.214;12.276;2023-08-01T14:34:27;3.83;;;1.80;;
48993;SDS011;34804;49.214;12.276;2023-08-01T14:36:54;3.83;;;1.83;;
48993;SDS011;34804;49.214;12.276;2023-08-01T14:39:21;4.88;;;1.60;;